• Join FlightAware (Why Join?)
  • Login
  • US Flag 
02:41AM EDT


 

Airport Tracker/Info


-or-


 

Live Flight TrackerFlight Track Log ✈ EJA941 ✈ 23-Jun-2013 ✈ KPHX - KLAS

Flight Track Log - Related Links

Times and Time Zones

All times are in EDT time to prevent confusion due to time zone crossing. See the EJA941 flight status page for this flight to view local times or setup timezone preferences in your user account.

Time Position Orientation Groundspeed Altitude Reporting Facility
EDT Latitude Longitude Course Direction KTS MPH feet Rate Location/Type
12:44PM 33.4333 -112.0000 79° East 170 196 1,800  Level Phoenix TRACON
12:46PM 33.4500 -111.9000 79° East 224 258 7,100 3,960 Climbing Phoenix TRACON
12:47PM 33.4833 -111.8500 51° Northeast 254 292 11,000 3,240 Climbing Phoenix TRACON
12:48PM 33.5697 -111.9217 325° Northwest 312 359 14,200 2,580 Climbing Albuquerque Center
12:49PM 33.6528 -111.9953 324° Northwest 358 412 16,900 2,220 Climbing Albuquerque Center
12:50PM 33.7336 -112.0681 323° Northwest 371 427 18,800 1,800 Climbing Albuquerque Center
12:51PM 33.8186 -112.1442 323° Northwest 375 432 20,700 1,740 Climbing Albuquerque Center
12:52PM 33.9053 -112.2228 323° Northwest 385 443 22,500 1,560 Climbing Albuquerque Center
12:53PM 33.9942 -112.3044 323° Northwest 397 457 24,000 720 Climbing Albuquerque Center
12:54PM 34.0797 -112.4100 314° West 440 506 24,000  Level Albuquerque Center
12:55PM 34.1889 -112.5494 313° West 473 544 24,000  Level Albuquerque Center
12:56PM 34.2850 -112.6686 314° West 490 564 24,000  Level Albuquerque Center
12:57PM 34.3761 -112.7867 313° West 482 555 24,000  Level Albuquerque Center
12:58PM 34.4706 -112.9050 314° West 477 549 24,000  Level Albuquerque Center
12:59PM 34.5572 -113.0169 313° West 461 531 24,000  Level Albuquerque Center
01:00PM 34.6428 -113.1258 314° West 450 518 24,000  Level Albuquerque Center
01:01PM 34.7269 -113.2339 313° West 442 509 24,000  Level Albuquerque Center
01:02PM 34.8261 -113.3656 313° West 440 506 24,000  Level Albuquerque Center
01:03PM 34.9092 -113.4719 314° West 435 501 24,000  Level Albuquerque Center
01:04PM 34.9928 -113.5825 313° West 439 505 24,000  Level Los Angeles Center
01:05PM 35.0767 -113.6903 314° West 438 504 24,000  Level Los Angeles Center
01:06PM 35.1592 -113.7997 313° West 438 504 24,000  Level Los Angeles Center
01:07PM 35.2411 -113.9097 312° West 438 504 24,000 -840 Level Los Angeles Center
01:08PM 35.3167 -113.9875 320° Northwest 448 516 22,300 -2,520 Descending Los Angeles Center
01:10PM 35.4603 -114.1217 323° Northwest 458 527 18,800 -2,820 Descending Los Angeles Center
01:11PM 35.5511 -114.2036 324° Northwest 415 478 16,500 -2,100 Descending Los Angeles Center
01:11PM 35.6092 -114.2622 321° Northwest 364 419 15,000 -1,740 Descending Los Angeles Center
01:13PM 35.6969 -114.3403 324° Northwest 324 373 13,000 -1,440 Descending Los Angeles Center
01:13PM 35.7647 -114.3950 327° Northwest 313 360 12,000 -540 Descending Los Angeles Center
01:15PM 35.8525 -114.4336 340° North 317 365 12,000 -240 Level Los Angeles Center
01:16PM 35.9389 -114.4769 338° Northwest 308 354 11,500 -780 Descending Los Angeles Center
01:17PM 36.0119 -114.5136 338° Northwest 306 352 10,600 -1,680 Descending Los Angeles Center
01:17PM 36.0869 -114.5494 339° North 312 359 8,500 -1,740 Descending Los Angeles Center
01:19PM 36.1675 -114.6103 329° Northwest 279 321 7,000 -720 Descending Los Angeles Center
01:20PM 36.1600 -114.6928 264° West 247 284 7,000  Level Los Angeles Center
01:21PM 36.1544 -114.7561 264° West 242 278 7,000  Level Los Angeles Center
01:21PM 36.1486 -114.8272 264° West 232 267 7,000  Level Los Angeles Center
01:22PM 36.1411 -114.8708 258° West 235 270 7,000 -300 Level Los Angeles Center
01:23PM 36.1342 -114.9436 263° West 220 253 6,600 -1,080 Descending Los Angeles Center
01:24PM 36.1347 -115.0125 271° West 206 237 4,800 -1,320 Descending Los Angeles Center
01:25PM 36.1394 -115.0750 275° West 195 224 3,900 -1,020 Descending Los Angeles Center
01:26PM 36.1344 -115.1089 260° West 158 182 3,300 -900 Descending Los Angeles Center
01:26PM 36.1314 -115.1278 259° West 174 200 3,000 -780 Descending Los Angeles Center
01:27PM 36.0997 -115.1572 217° Southwest 154 177 2,100 -900 Descending Los Angeles Center
01:29PM 36.0801 -115.1523 270° West  Level Estimated